sensor_id;sensor_type;location;lat;lon;timestamp;temperature;humidity
2995;DHT22;35277;49.890;8.222;2023-07-22T00:00:22;26.90;60.20
2995;DHT22;35277;49.890;8.222;2023-07-22T00:02:51;26.90;60.20
2995;DHT22;35277;49.890;8.222;2023-07-22T00:05:19;26.90;60.20
2995;DHT22;35277;49.890;8.222;2023-07-22T00:07:50;26.90;60.30
2995;DHT22;35277;49.890;8.222;2023-07-22T00:10:18;26.90;60.30
2995;DHT22;35277;49.890;8.222;2023-07-22T00:12:46;26.90;60.30
2995;DHT22;35277;49.890;8.222;2023-07-22T00:15:13;26.90;60.30
2995;DHT22;35277;49.890;8.222;2023-07-22T00:17:41;26.90;60.30
2995;DHT22;35277;49.890;8.222;2023-07-22T00:20:12;26.90;60.40
2995;DHT22;35277;49.890;8.222;2023-07-22T00:22:40;26.90;60.40
2995;DHT22;35277;49.890;8.222;2023-07-22T00:25:10;26.90;60.40
2995;DHT22;35277;49.890;8.222;2023-07-22T00:27:39;26.90;60.40
2995;DHT22;35277;49.890;8.222;2023-07-22T00:30:08;26.80;60.30
2995;DHT22;35277;49.890;8.222;2023-07-22T00:32:36;26.80;60.30
2995;DHT22;35277;49.890;8.222;2023-07-22T00:35:05;26.90;60.40
2995;DHT22;35277;49.890;8.222;2023-07-22T00:37:35;26.80;60.30
2995;DHT22;35277;49.890;8.222;2023-07-22T00:40:03;26.90;60.40
2995;DHT22;35277;49.890;8.222;2023-07-22T00:42:38;26.90;60.50
2995;DHT22;35277;49.890;8.222;2023-07-22T00:45:07;26.80;60.40
2995;DHT22;35277;49.890;8.222;2023-07-22T00:47:35;26.80;60.40
2995;DHT22;35277;49.890;8.222;2023-07-22T00:50:06;26.90;60.50
2995;DHT22;35277;49.890;8.222;2023-07-22T00:52:35;26.80;60.40
2995;DHT22;35277;49.890;8.222;2023-07-22T00:55:04;26.80;60.40
2995;DHT22;35277;49.890;8.222;2023-07-22T00:57:33;26.80;60.40
2995;DHT22;35277;49.890;8.222;2023-07-22T01:00:01;26.80;60.50
2995;DHT22;35277;49.890;8.222;2023-07-22T01:02:29;26.80;60.50
2995;DHT22;35277;49.890;8.222;2023-07-22T01:04:57;26.80;60.50
2995;DHT22;35277;49.890;8.222;2023-07-22T01:07:25;26.80;60.50
2995;DHT22;35277;49.890;8.222;2023-07-22T01:09:57;26.80;60.50
2995;DHT22;35277;49.890;8.222;2023-07-22T01:12:26;26.90;60.60
2995;DHT22;35277;49.890;8.222;2023-07-22T01:14:54;26.80;60.50
2995;DHT22;35277;49.890;8.222;2023-07-22T01:17:22;26.80;60.50
2995;DHT22;35277;49.890;8.222;2023-07-22T01:19:50;26.80;60.50
2995;DHT22;35277;49.890;8.222;2023-07-22T01:22:19;26.80;60.50
2995;DHT22;35277;49.890;8.222;2023-07-22T01:24:49;26.80;60.50
2995;DHT22;35277;49.890;8.222;2023-07-22T01:27:17;26.80;60.50
2995;DHT22;35277;49.890;8.222;2023-07-22T01:29:46;26.80;60.60
2995;DHT22;35277;49.890;8.222;2023-07-22T01:32:14;26.80;60.60
2995;DHT22;35277;49.890;8.222;2023-07-22T01:34:42;26.80;61.40
2995;DHT22;35277;49.890;8.222;2023-07-22T01:37:10;26.80;60.60
2995;DHT22;35277;49.890;8.222;2023-07-22T01:39:38;26.80;60.60
2995;DHT22;35277;49.890;8.222;2023-07-22T01:42:07;26.80;60.60
2995;DHT22;35277;49.890;8.222;2023-07-22T01:44:35;26.80;60.60
2995;DHT22;35277;49.890;8.222;2023-07-22T01:47:03;26.80;60.60
2995;DHT22;35277;49.890;8.222;2023-07-22T01:49:31;26.80;60.60
2995;DHT22;35277;49.890;8.222;2023-07-22T01:52:00;26.80;60.60
2995;DHT22;35277;49.890;8.222;2023-07-22T01:54:28;26.80;60.70
2995;DHT22;35277;49.890;8.222;2023-07-22T01:56:56;26.80;60.70
2995;DHT22;35277;49.890;8.222;2023-07-22T01:59:25;26.80;60.70
2995;DHT22;35277;49.890;8.222;2023-07-22T02:01:53;26.80;60.70
2995;DHT22;35277;49.890;8.222;2023-07-22T02:04:21;26.80;60.70
2995;DHT22;35277;49.890;8.222;2023-07-22T02:06:49;26.80;60.70
2995;DHT22;35277;49.890;8.222;2023-07-22T02:09:17;26.80;60.70
2995;DHT22;35277;49.890;8.222;2023-07-22T02:11:45;26.80;60.70
2995;DHT22;35277;49.890;8.222;2023-07-22T02:14:13;26.80;60.70
2995;DHT22;35277;49.890;8.222;2023-07-22T02:16:42;26.80;60.80
2995;DHT22;35277;49.890;8.222;2023-07-22T02:19:10;26.80;60.80
2995;DHT22;35277;49.890;8.222;2023-07-22T02:21:40;26.80;60.80
2995;DHT22;35277;49.890;8.222;2023-07-22T02:24:09;26.80;60.80
2995;DHT22;35277;49.890;8.222;2023-07-22T02:26:37;26.80;60.80
2995;DHT22;35277;49.890;8.222;2023-07-22T02:29:05;26.80;60.80
2995;DHT22;35277;49.890;8.222;2023-07-22T02:31:34;26.80;60.80
2995;DHT22;35277;49.890;8.222;2023-07-22T02:34:03;26.80;60.80
2995;DHT22;35277;49.890;8.222;2023-07-22T02:36:31;26.80;60.80
2995;DHT22;35277;49.890;8.222;2023-07-22T02:38:59;26.80;60.80
2995;DHT22;35277;49.890;8.222;2023-07-22T02:41:27;26.80;60.80
2995;DHT22;35277;49.890;8.222;2023-07-22T02:43:55;26.80;60.80
2995;DHT22;35277;49.890;8.222;2023-07-22T02:46:23;26.80;60.90
2995;DHT22;35277;49.890;8.222;2023-07-22T02:48:52;26.80;60.90
2995;DHT22;35277;49.890;8.222;2023-07-22T02:51:22;26.80;60.90
2995;DHT22;35277;49.890;8.222;2023-07-22T02:53:50;26.80;60.90
2995;DHT22;35277;49.890;8.222;2023-07-22T02:56:18;26.80;61.00
2995;DHT22;35277;49.890;8.222;2023-07-22T02:58:46;26.80;60.90
2995;DHT22;35277;49.890;8.222;2023-07-22T03:01:14;26.80;60.90
2995;DHT22;35277;49.890;8.222;2023-07-22T03:03:42;26.80;60.90
2995;DHT22;35277;49.890;8.222;2023-07-22T03:06:10;26.80;60.90
2995;DHT22;35277;49.890;8.222;2023-07-22T03:08:39;26.80;60.90
2995;DHT22;35277;49.890;8.222;2023-07-22T03:11:07;26.80;60.90
2995;DHT22;35277;49.890;8.222;2023-07-22T03:13:35;26.80;61.00
2995;DHT22;35277;49.890;8.222;2023-07-22T03:16:03;26.80;61.00
2995;DHT22;35277;49.890;8.222;2023-07-22T03:18:32;26.80;61.00
2995;DHT22;35277;49.890;8.222;2023-07-22T03:20:59;26.80;61.00
2995;DHT22;35277;49.890;8.222;2023-07-22T03:23:27;26.80;61.00
2995;DHT22;35277;49.890;8.222;2023-07-22T03:25:57;26.80;61.00
2995;DHT22;35277;49.890;8.222;2023-07-22T03:28:24;26.80;61.00
2995;DHT22;35277;49.890;8.222;2023-07-22T03:30:53;26.80;61.00
2995;DHT22;35277;49.890;8.222;2023-07-22T03:33:21;26.80;61.00
2995;DHT22;35277;49.890;8.222;2023-07-22T03:35:49;26.80;61.00
2995;DHT22;35277;49.890;8.222;2023-07-22T03:38:17;26.80;61.00
2995;DHT22;35277;49.890;8.222;2023-07-22T03:40:45;26.80;61.00
2995;DHT22;35277;49.890;8.222;2023-07-22T03:43:15;26.80;61.00
2995;DHT22;35277;49.890;8.222;2023-07-22T03:45:43;26.80;61.10
2995;DHT22;35277;49.890;8.222;2023-07-22T03:48:11;26.80;61.00
2995;DHT22;35277;49.890;8.222;2023-07-22T03:50:39;26.80;61.00
2995;DHT22;35277;49.890;8.222;2023-07-22T03:53:07;26.80;61.00
2995;DHT22;35277;49.890;8.222;2023-07-22T03:55:35;26.80;61.00
2995;DHT22;35277;49.890;8.222;2023-07-22T03:58:02;26.80;61.10
2995;DHT22;35277;49.890;8.222;2023-07-22T04:00:31;26.80;61.10
2995;DHT22;35277;49.890;8.222;2023-07-22T04:02:59;26.80;61.10
2995;DHT22;35277;49.890;8.222;2023-07-22T04:05:27;26.80;61.10
2995;DHT22;35277;49.890;8.222;2023-07-22T04:07:55;26.80;61.10
2995;DHT22;35277;49.890;8.222;2023-07-22T04:10:23;26.80;61.10
2995;DHT22;35277;49.890;8.222;2023-07-22T04:12:51;26.80;61.10
2995;DHT22;35277;49.890;8.222;2023-07-22T04:15:18;26.80;61.10
2995;DHT22;35277;49.890;8.222;2023-07-22T04:17:48;26.80;61.10
2995;DHT22;35277;49.890;8.222;2023-07-22T04:20:16;26.80;61.10
2995;DHT22;35277;49.890;8.222;2023-07-22T04:22:44;26.80;61.20
2995;DHT22;35277;49.890;8.222;2023-07-22T04:25:12;26.80;61.20
2995;DHT22;35277;49.890;8.222;2023-07-22T04:27:41;26.80;61.20
2995;DHT22;35277;49.890;8.222;2023-07-22T04:30:10;26.80;61.20
2995;DHT22;35277;49.890;8.222;2023-07-22T04:32:42;26.80;61.20
2995;DHT22;35277;49.890;8.222;2023-07-22T04:35:11;26.80;61.20
2995;DHT22;35277;49.890;8.222;2023-07-22T04:37:39;26.80;61.20
2995;DHT22;35277;49.890;8.222;2023-07-22T04:40:08;26.80;61.20
2995;DHT22;35277;49.890;8.222;2023-07-22T04:42:40;26.80;61.20
2995;DHT22;35277;49.890;8.222;2023-07-22T04:45:09;26.80;61.20
2995;DHT22;35277;49.890;8.222;2023-07-22T04:47:37;26.80;61.20
2995;DHT22;35277;49.890;8.222;2023-07-22T04:50:07;26.80;61.20
2995;DHT22;35277;49.890;8.222;2023-07-22T04:52:37;26.80;61.20
2995;DHT22;35277;49.890;8.222;2023-07-22T04:55:06;26.80;61.10
2995;DHT22;35277;49.890;8.222;2023-07-22T04:57:36;26.70;60.90
2995;DHT22;35277;49.890;8.222;2023-07-22T05:00:04;26.80;60.80
2995;DHT22;35277;49.890;8.222;2023-07-22T05:02:35;26.70;60.70
2995;DHT22;35277;49.890;8.222;2023-07-22T05:05:03;26.70;60.60
2995;DHT22;35277;49.890;8.222;2023-07-22T05:07:31;26.70;60.50
2995;DHT22;35277;49.890;8.222;2023-07-22T05:10:00;26.70;60.50
2995;DHT22;35277;49.890;8.222;2023-07-22T05:12:28;26.70;60.40
2995;DHT22;35277;49.890;8.222;2023-07-22T05:14:56;26.70;60.40
2995;DHT22;35277;49.890;8.222;2023-07-22T05:17:23;26.70;60.40
2995;DHT22;35277;49.890;8.222;2023-07-22T05:19:52;26.70;60.30
2995;DHT22;35277;49.890;8.222;2023-07-22T05:22:20;26.70;60.30
2995;DHT22;35277;49.890;8.222;2023-07-22T05:24:48;26.70;60.40
2995;DHT22;35277;49.890;8.222;2023-07-22T05:27:17;26.70;60.40
2995;DHT22;35277;49.890;8.222;2023-07-22T05:29:45;26.70;60.50
2995;DHT22;35277;49.890;8.222;2023-07-22T05:32:13;26.70;60.60
2995;DHT22;35277;49.890;8.222;2023-07-22T05:34:58;26.70;60.70
2995;DHT22;35277;49.890;8.222;2023-07-22T05:37:26;26.70;60.80
2995;DHT22;35277;49.890;8.222;2023-07-22T05:39:54;26.70;60.80
2995;DHT22;35277;49.890;8.222;2023-07-22T05:42:23;26.70;61.00
2995;DHT22;35277;49.890;8.222;2023-07-22T05:44:53;26.70;61.00
2995;DHT22;35277;49.890;8.222;2023-07-22T05:47:21;26.70;61.10
2995;DHT22;35277;49.890;8.222;2023-07-22T05:49:50;26.70;61.20
2995;DHT22;35277;49.890;8.222;2023-07-22T05:52:17;26.70;61.10
2995;DHT22;35277;49.890;8.222;2023-07-22T05:54:45;26.80;61.20
2995;DHT22;35277;49.890;8.222;2023-07-22T05:57:13;26.80;61.20
2995;DHT22;35277;49.890;8.222;2023-07-22T05:59:42;26.80;61.20
2995;DHT22;35277;49.890;8.222;2023-07-22T06:02:13;26.80;61.20
2995;DHT22;35277;49.890;8.222;2023-07-22T06:04:40;26.80;61.00
2995;DHT22;35277;49.890;8.222;2023-07-22T06:07:08;26.80;60.90
2995;DHT22;35277;49.890;8.222;2023-07-22T06:09:36;26.80;60.80
2995;DHT22;35277;49.890;8.222;2023-07-22T06:12:04;26.70;60.60
2995;DHT22;35277;49.890;8.222;2023-07-22T06:14:32;26.70;60.30
2995;DHT22;35277;49.890;8.222;2023-07-22T06:17:02;26.70;60.20
2995;DHT22;35277;49.890;8.222;2023-07-22T06:19:30;26.60;60.10
2995;DHT22;35277;49.890;8.222;2023-07-22T06:21:58;26.60;59.90
2995;DHT22;35277;49.890;8.222;2023-07-22T06:24:26;26.50;59.80
2995;DHT22;35277;49.890;8.222;2023-07-22T06:26:54;26.50;59.70
2995;DHT22;35277;49.890;8.222;2023-07-22T06:29:21;26.40;59.60
2995;DHT22;35277;49.890;8.222;2023-07-22T06:31:49;26.40;59.70
2995;DHT22;35277;49.890;8.222;2023-07-22T06:34:18;26.30;59.70
2995;DHT22;35277;49.890;8.222;2023-07-22T06:36:47;26.20;59.80
2995;DHT22;35277;49.890;8.222;2023-07-22T06:39:15;26.10;59.90
2995;DHT22;35277;49.890;8.222;2023-07-22T06:41:42;26.00;60.00
2995;DHT22;35277;49.890;8.222;2023-07-22T06:44:12;25.90;60.10
2995;DHT22;35277;49.890;8.222;2023-07-22T06:46:40;25.90;60.40
2995;DHT22;35277;49.890;8.222;2023-07-22T06:49:08;25.80;60.40
2995;DHT22;35277;49.890;8.222;2023-07-22T06:51:37;25.80;60.50
2995;DHT22;35277;49.890;8.222;2023-07-22T06:54:06;25.70;60.60
2995;DHT22;35277;49.890;8.222;2023-07-22T06:56:34;25.80;60.90
2995;DHT22;35277;49.890;8.222;2023-07-22T06:59:01;25.70;60.90
2995;DHT22;35277;49.890;8.222;2023-07-22T07:01:29;25.60;61.00
2995;DHT22;35277;49.890;8.222;2023-07-22T07:03:57;25.60;61.10
2995;DHT22;35277;49.890;8.222;2023-07-22T07:06:25;25.50;61.20
2995;DHT22;35277;49.890;8.222;2023-07-22T07:08:54;25.50;61.30
2995;DHT22;35277;49.890;8.222;2023-07-22T07:11:22;25.50;61.30
2995;DHT22;35277;49.890;8.222;2023-07-22T07:13:50;25.50;61.30
2995;DHT22;35277;49.890;8.222;2023-07-22T07:16:22;25.50;61.30
2995;DHT22;35277;49.890;8.222;2023-07-22T07:18:52;25.60;61.30
2995;DHT22;35277;49.890;8.222;2023-07-22T07:21:21;25.60;61.30
2995;DHT22;35277;49.890;8.222;2023-07-22T07:23:49;25.60;61.40
2995;DHT22;35277;49.890;8.222;2023-07-22T07:26:20;25.50;61.40
2995;DHT22;35277;49.890;8.222;2023-07-22T07:28:49;25.50;61.50
2995;DHT22;35277;49.890;8.222;2023-07-22T07:31:17;25.50;61.60
2995;DHT22;35277;49.890;8.222;2023-07-22T07:33:45;25.40;61.80
2995;DHT22;35277;49.890;8.222;2023-07-22T07:36:13;25.30;61.70
2995;DHT22;35277;49.890;8.222;2023-07-22T07:38:41;25.30;61.70
2995;DHT22;35277;49.890;8.222;2023-07-22T07:41:10;25.20;61.80
2995;DHT22;35277;49.890;8.222;2023-07-22T07:43:41;25.20;61.90
2995;DHT22;35277;49.890;8.222;2023-07-22T07:46:13;25.10;62.00
2995;DHT22;35277;49.890;8.222;2023-07-22T07:48:44;25.00;62.10
2995;DHT22;35277;49.890;8.222;2023-07-22T07:51:13;25.00;62.10
2995;DHT22;35277;49.890;8.222;2023-07-22T07:53:42;25.00;62.30
2995;DHT22;35277;49.890;8.222;2023-07-22T07:56:11;24.90;62.10
2995;DHT22;35277;49.890;8.222;2023-07-22T07:58:40;24.90;62.10
2995;DHT22;35277;49.890;8.222;2023-07-22T08:01:08;24.90;62.10
2995;DHT22;35277;49.890;8.222;2023-07-22T08:03:37;24.90;62.10
2995;DHT22;35277;49.890;8.222;2023-07-22T08:06:05;24.90;62.10
2995;DHT22;35277;49.890;8.222;2023-07-22T08:08:34;25.00;62.10
2995;DHT22;35277;49.890;8.222;2023-07-22T08:11:04;25.10;62.00
2995;DHT22;35277;49.890;8.222;2023-07-22T08:13:32;25.20;62.00
2995;DHT22;35277;49.890;8.222;2023-07-22T08:16:03;25.30;62.00
2995;DHT22;35277;49.890;8.222;2023-07-22T08:18:31;25.40;61.90
2995;DHT22;35277;49.890;8.222;2023-07-22T08:21:00;25.50;61.90
2995;DHT22;35277;49.890;8.222;2023-07-22T08:23:29;25.50;61.80
2995;DHT22;35277;49.890;8.222;2023-07-22T08:25:57;25.60;61.80
2995;DHT22;35277;49.890;8.222;2023-07-22T08:28:25;25.70;61.80
2995;DHT22;35277;49.890;8.222;2023-07-22T08:30:54;25.70;61.80
2995;DHT22;35277;49.890;8.222;2023-07-22T08:33:24;25.80;61.70
2995;DHT22;35277;49.890;8.222;2023-07-22T08:36:06;25.80;61.60
2995;DHT22;35277;49.890;8.222;2023-07-22T08:38:34;25.80;61.60
2995;DHT22;35277;49.890;8.222;2023-07-22T08:41:02;25.90;61.50
2995;DHT22;35277;49.890;8.222;2023-07-22T08:43:30;25.90;61.40
2995;DHT22;35277;49.890;8.222;2023-07-22T08:46:01;25.90;61.40
2995;DHT22;35277;49.890;8.222;2023-07-22T08:48:31;25.90;61.20
2995;DHT22;35277;49.890;8.222;2023-07-22T08:51:04;26.00;61.20
2995;DHT22;35277;49.890;8.222;2023-07-22T08:53:32;26.00;61.10
2995;DHT22;35277;49.890;8.222;2023-07-22T08:56:01;26.00;61.00
2995;DHT22;35277;49.890;8.222;2023-07-22T08:58:29;26.00;60.90
2995;DHT22;35277;49.890;8.222;2023-07-22T09:00:57;26.10;60.90
2995;DHT22;35277;49.890;8.222;2023-07-22T09:03:25;26.10;60.80
2995;DHT22;35277;49.890;8.222;2023-07-22T09:05:55;26.10;60.80
2995;DHT22;35277;49.890;8.222;2023-07-22T09:08:23;26.10;60.70
2995;DHT22;35277;49.890;8.222;2023-07-22T09:10:51;26.10;60.70
2995;DHT22;35277;49.890;8.222;2023-07-22T09:13:20;26.20;60.60
2995;DHT22;35277;49.890;8.222;2023-07-22T09:15:49;26.20;60.60
2995;DHT22;35277;49.890;8.222;2023-07-22T09:18:18;26.20;60.50
2995;DHT22;35277;49.890;8.222;2023-07-22T09:20:46;26.20;60.40
2995;DHT22;35277;49.890;8.222;2023-07-22T09:23:15;26.20;60.40
2995;DHT22;35277;49.890;8.222;2023-07-22T09:25:43;26.30;60.50
2995;DHT22;35277;49.890;8.222;2023-07-22T09:28:11;26.30;60.40
2995;DHT22;35277;49.890;8.222;2023-07-22T09:30:39;26.30;60.40
2995;DHT22;35277;49.890;8.222;2023-07-22T09:33:20;26.30;60.40
2995;DHT22;35277;49.890;8.222;2023-07-22T09:35:49;26.40;60.50
2995;DHT22;35277;49.890;8.222;2023-07-22T09:38:24;26.40;60.50
2995;DHT22;35277;49.890;8.222;2023-07-22T09:40:52;26.40;60.50
2995;DHT22;35277;49.890;8.222;2023-07-22T09:43:22;26.40;60.40
2995;DHT22;35277;49.890;8.222;2023-07-22T09:45:50;26.40;60.40
2995;DHT22;35277;49.890;8.222;2023-07-22T09:48:20;26.50;60.30
2995;DHT22;35277;49.890;8.222;2023-07-22T09:50:56;26.50;60.10
2995;DHT22;35277;49.890;8.222;2023-07-22T09:53:25;26.50;59.80
2995;DHT22;35277;49.890;8.222;2023-07-22T09:55:53;26.50;59.70
2995;DHT22;35277;49.890;8.222;2023-07-22T09:58:24;26.50;59.60
2995;DHT22;35277;49.890;8.222;2023-07-22T10:00:54;26.50;59.60
2995;DHT22;35277;49.890;8.222;2023-07-22T10:03:24;26.50;59.60
2995;DHT22;35277;49.890;8.222;2023-07-22T10:05:59;26.50;59.60
2995;DHT22;35277;49.890;8.222;2023-07-22T10:08:30;26.50;59.60
2995;DHT22;35277;49.890;8.222;2023-07-22T10:11:05;26.50;59.60
2995;DHT22;35277;49.890;8.222;2023-07-22T10:13:37;26.50;59.60
2995;DHT22;35277;49.890;8.222;2023-07-22T10:16:05;26.50;59.60
2995;DHT22;35277;49.890;8.222;2023-07-22T10:18:34;26.50;59.50
2995;DHT22;35277;49.890;8.222;2023-07-22T10:21:04;26.60;59.60
2995;DHT22;35277;49.890;8.222;2023-07-22T10:23:33;26.60;59.50
2995;DHT22;35277;49.890;8.222;2023-07-22T10:26:01;26.50;59.50
2995;DHT22;35277;49.890;8.222;2023-07-22T10:28:30;26.60;59.50
2995;DHT22;35277;49.890;8.222;2023-07-22T10:30:58;26.60;59.40
2995;DHT22;35277;49.890;8.222;2023-07-22T10:33:26;26.60;59.40
2995;DHT22;35277;49.890;8.222;2023-07-22T10:36:05;26.60;59.40
2995;DHT22;35277;49.890;8.222;2023-07-22T10:38:35;26.60;59.30
2995;DHT22;35277;49.890;8.222;2023-07-22T10:41:12;26.60;59.30
2995;DHT22;35277;49.890;8.222;2023-07-22T10:43:40;26.70;59.30
2995;DHT22;35277;49.890;8.222;2023-07-22T10:46:10;26.70;59.30
2995;DHT22;35277;49.890;8.222;2023-07-22T10:48:40;26.70;59.30
2995;DHT22;35277;49.890;8.222;2023-07-22T10:51:11;26.70;59.20
2995;DHT22;35277;49.890;8.222;2023-07-22T10:53:43;26.70;59.10
2995;DHT22;35277;49.890;8.222;2023-07-22T10:56:15;26.70;58.80
2995;DHT22;35277;49.890;8.222;2023-07-22T10:58:59;26.60;58.60
2995;DHT22;35277;49.890;8.222;2023-07-22T11:01:32;26.60;58.60
2995;DHT22;35277;49.890;8.222;2023-07-22T11:04:12;26.60;58.50
2995;DHT22;35277;49.890;8.222;2023-07-22T11:06:52;26.70;58.50
2995;DHT22;35277;49.890;8.222;2023-07-22T11:09:37;26.70;58.40
2995;DHT22;35277;49.890;8.222;2023-07-22T11:12:07;26.70;58.40
2995;DHT22;35277;49.890;8.222;2023-07-22T11:14:46;26.70;58.30
2995;DHT22;35277;49.890;8.222;2023-07-22T11:17:14;26.80;58.40
2995;DHT22;35277;49.890;8.222;2023-07-22T11:19:42;26.80;58.40
2995;DHT22;35277;49.890;8.222;2023-07-22T11:22:10;26.90;58.40
2995;DHT22;35277;49.890;8.222;2023-07-22T11:24:41;26.90;58.40
2995;DHT22;35277;49.890;8.222;2023-07-22T11:27:09;26.90;58.30
2995;DHT22;35277;49.890;8.222;2023-07-22T11:29:37;26.90;58.10
2995;DHT22;35277;49.890;8.222;2023-07-22T11:32:05;27.00;58.10
2995;DHT22;35277;49.890;8.222;2023-07-22T11:34:34;27.00;57.90
2995;DHT22;35277;49.890;8.222;2023-07-22T11:37:02;27.00;57.60
2995;DHT22;35277;49.890;8.222;2023-07-22T11:39:32;27.00;57.50
2995;DHT22;35277;49.890;8.222;2023-07-22T11:42:04;27.00;57.40
2995;DHT22;35277;49.890;8.222;2023-07-22T11:44:33;27.00;57.20
2995;DHT22;35277;49.890;8.222;2023-07-22T11:47:02;27.00;57.00
2995;DHT22;35277;49.890;8.222;2023-07-22T11:49:32;27.00;56.90
2995;DHT22;35277;49.890;8.222;2023-07-22T11:52:01;26.90;56.70
2995;DHT22;35277;49.890;8.222;2023-07-22T11:54:31;26.90;56.60
2995;DHT22;35277;49.890;8.222;2023-07-22T11:57:12;26.80;56.50
2995;DHT22;35277;49.890;8.222;2023-07-22T11:59:44;26.80;56.40
2995;DHT22;35277;49.890;8.222;2023-07-22T12:02:13;26.80;56.30
2995;DHT22;35277;49.890;8.222;2023-07-22T12:04:41;26.80;56.20
2995;DHT22;35277;49.890;8.222;2023-07-22T12:07:21;26.80;56.10
2995;DHT22;35277;49.890;8.222;2023-07-22T12:09:49;26.80;56.10
2995;DHT22;35277;49.890;8.222;2023-07-22T12:12:18;26.80;56.00
2995;DHT22;35277;49.890;8.222;2023-07-22T12:14:46;26.80;56.00
2995;DHT22;35277;49.890;8.222;2023-07-22T12:17:14;26.80;55.90
2995;DHT22;35277;49.890;8.222;2023-07-22T12:19:51;26.70;55.60
2995;DHT22;35277;49.890;8.222;2023-07-22T12:22:19;26.70;55.50
2995;DHT22;35277;49.890;8.222;2023-07-22T12:24:47;26.70;55.30
2995;DHT22;35277;49.890;8.222;2023-07-22T12:27:15;26.70;55.20
2995;DHT22;35277;49.890;8.222;2023-07-22T12:29:44;26.80;55.20
2995;DHT22;35277;49.890;8.222;2023-07-22T12:32:12;26.80;55.00
2995;DHT22;35277;49.890;8.222;2023-07-22T12:34:40;26.70;54.90
2995;DHT22;35277;49.890;8.222;2023-07-22T12:37:08;26.80;54.90
2995;DHT22;35277;49.890;8.222;2023-07-22T12:39:35;26.80;54.70
2995;DHT22;35277;49.890;8.222;2023-07-22T12:42:03;26.80;54.60
2995;DHT22;35277;49.890;8.222;2023-07-22T12:44:31;26.80;54.40
2995;DHT22;35277;49.890;8.222;2023-07-22T12:47:00;26.80;54.20
2995;DHT22;35277;49.890;8.222;2023-07-22T12:49:29;26.80;54.00
2995;DHT22;35277;49.890;8.222;2023-07-22T12:51:56;26.80;53.90
2995;DHT22;35277;49.890;8.222;2023-07-22T12:54:30;26.80;53.70
2995;DHT22;35277;49.890;8.222;2023-07-22T12:56:58;26.90;53.70
2995;DHT22;35277;49.890;8.222;2023-07-22T12:59:26;26.90;53.70
2995;DHT22;35277;49.890;8.222;2023-07-22T13:01:54;26.90;53.60
2995;DHT22;35277;49.890;8.222;2023-07-22T13:04:25;26.90;53.70
2995;DHT22;35277;49.890;8.222;2023-07-22T13:06:53;26.90;53.70
2995;DHT22;35277;49.890;8.222;2023-07-22T13:09:21;26.90;53.80
2995;DHT22;35277;49.890;8.222;2023-07-22T13:11:49;26.90;53.70
2995;DHT22;35277;49.890;8.222;2023-07-22T13:14:17;26.90;53.70
2995;DHT22;35277;49.890;8.222;2023-07-22T13:16:45;26.90;53.70
2995;DHT22;35277;49.890;8.222;2023-07-22T13:19:13;26.90;53.70
2995;DHT22;35277;49.890;8.222;2023-07-22T13:21:42;26.90;53.70
2995;DHT22;35277;49.890;8.222;2023-07-22T13:24:10;26.90;53.70
2995;DHT22;35277;49.890;8.222;2023-07-22T13:26:38;26.90;53.70
2995;DHT22;35277;49.890;8.222;2023-07-22T13:29:06;26.90;53.70
2995;DHT22;35277;49.890;8.222;2023-07-22T13:31:35;26.80;53.60
2995;DHT22;35277;49.890;8.222;2023-07-22T13:34:03;26.80;53.60
2995;DHT22;35277;49.890;8.222;2023-07-22T13:36:31;26.80;53.60
2995;DHT22;35277;49.890;8.222;2023-07-22T13:39:00;26.80;53.60
2995;DHT22;35277;49.890;8.222;2023-07-22T13:41:28;26.80;53.70
2995;DHT22;35277;49.890;8.222;2023-07-22T13:43:56;26.80;53.70
2995;DHT22;35277;49.890;8.222;2023-07-22T13:46:23;26.80;53.70
2995;DHT22;35277;49.890;8.222;2023-07-22T13:48:51;26.80;53.70
2995;DHT22;35277;49.890;8.222;2023-07-22T13:51:19;26.80;53.60
2995;DHT22;35277;49.890;8.222;2023-07-22T13:53:47;26.80;53.60
2995;DHT22;35277;49.890;8.222;2023-07-22T13:56:16;26.80;53.60
2995;DHT22;35277;49.890;8.222;2023-07-22T13:58:44;26.80;53.60
2995;DHT22;35277;49.890;8.222;2023-07-22T14:01:13;26.80;53.70
2995;DHT22;35277;49.890;8.222;2023-07-22T14:03:41;26.80;53.80
2995;DHT22;35277;49.890;8.222;2023-07-22T14:06:09;26.70;53.80
2995;DHT22;35277;49.890;8.222;2023-07-22T14:08:36;26.80;54.00
2995;DHT22;35277;49.890;8.222;2023-07-22T14:11:05;26.80;53.90
2995;DHT22;35277;49.890;8.222;2023-07-22T14:13:34;26.80;53.90
2995;DHT22;35277;49.890;8.222;2023-07-22T14:16:03;26.80;53.80
2995;DHT22;35277;49.890;8.222;2023-07-22T14:18:47;26.70;53.80
2995;DHT22;35277;49.890;8.222;2023-07-22T14:21:15;26.70;53.70
2995;DHT22;35277;49.890;8.222;2023-07-22T14:23:43;26.80;53.80
2995;DHT22;35277;49.890;8.222;2023-07-22T14:26:11;26.70;53.70
2995;DHT22;35277;49.890;8.222;2023-07-22T14:28:40;26.80;53.80
2995;DHT22;35277;49.890;8.222;2023-07-22T14:31:08;26.80;53.70
2995;DHT22;35277;49.890;8.222;2023-07-22T14:33:36;26.80;53.70
2995;DHT22;35277;49.890;8.222;2023-07-22T14:36:04;26.70;53.60
2995;DHT22;35277;49.890;8.222;2023-07-22T14:38:32;26.80;53.60
2995;DHT22;35277;49.890;8.222;2023-07-22T14:40:59;26.80;53.40
2995;DHT22;35277;49.890;8.222;2023-07-22T14:43:27;26.80;53.30
2995;DHT22;35277;49.890;8.222;2023-07-22T14:45:56;26.80;53.20
2995;DHT22;35277;49.890;8.222;2023-07-22T14:48:24;26.80;53.10
2995;DHT22;35277;49.890;8.222;2023-07-22T14:50:53;26.80;53.00
2995;DHT22;35277;49.890;8.222;2023-07-22T14:53:20;26.80;53.00
2995;DHT22;35277;49.890;8.222;2023-07-22T14:55:48;26.80;52.90
2995;DHT22;35277;49.890;8.222;2023-07-22T14:58:19;26.80;52.90
2995;DHT22;35277;49.890;8.222;2023-07-22T15:00:47;26.80;52.70
2995;DHT22;35277;49.890;8.222;2023-07-22T15:03:16;26.80;52.70
2995;DHT22;35277;49.890;8.222;2023-07-22T15:05:44;26.80;52.60
2995;DHT22;35277;49.890;8.222;2023-07-22T15:08:12;26.80;52.60
2995;DHT22;35277;49.890;8.222;2023-07-22T15:10:40;26.80;52.40
2995;DHT22;35277;49.890;8.222;2023-07-22T15:13:07;26.80;52.30
2995;DHT22;35277;49.890;8.222;2023-07-22T15:15:35;26.80;52.20
2995;DHT22;35277;49.890;8.222;2023-07-22T15:18:03;26.80;52.20
2995;DHT22;35277;49.890;8.222;2023-07-22T15:20:32;26.80;52.20
2995;DHT22;35277;49.890;8.222;2023-07-22T15:23:00;26.80;52.20
2995;DHT22;35277;49.890;8.222;2023-07-22T15:25:28;26.80;52.20
2995;DHT22;35277;49.890;8.222;2023-07-22T15:27:56;26.80;52.40
2995;DHT22;35277;49.890;8.222;2023-07-22T15:30:23;26.80;52.20
2995;DHT22;35277;49.890;8.222;2023-07-22T15:32:51;26.80;52.20
2995;DHT22;35277;49.890;8.222;2023-07-22T15:35:19;26.80;52.20
2995;DHT22;35277;49.890;8.222;2023-07-22T15:37:51;26.90;52.30
2995;DHT22;35277;49.890;8.222;2023-07-22T15:40:21;26.80;52.20
2995;DHT22;35277;49.890;8.222;2023-07-22T15:42:48;26.90;52.30
2995;DHT22;35277;49.890;8.222;2023-07-22T15:45:16;26.90;52.30
2995;DHT22;35277;49.890;8.222;2023-07-22T15:47:44;26.90;52.30
2995;DHT22;35277;49.890;8.222;2023-07-22T15:50:12;26.90;52.40
2995;DHT22;35277;49.890;8.222;2023-07-22T15:52:40;26.90;52.30
2995;DHT22;35277;49.890;8.222;2023-07-22T15:55:09;26.90;52.30